Time;durP1;ratioP1;P1;durP2;ratioP2;P2;SDS_P1;SDS_P2;PMS_P1;PMS_P2;Temp;Humidity;BMP_temperature;BMP_pressure;BME280_temperature;BME280_humidity;BME280_pressure;Samples;Min_cycle;Max_cycle;Signal;HPM_P1;HPM_P2
2021/12/23 00:00:49;;;;;;;16.93;10.13;;;0.80;99.90;;;;;;5095566;27;20232;-57
2021/12/23 00:03:15;;;;;;;20.40;11.40;;;0.60;99.90;;;;;;5098368;27;20287;-56
2021/12/23 00:05:42;;;;;;;15.33;9.97;;;0.50;99.90;;;;;;5096561;28;20267;-56
2021/12/23 00:08:09;;;;;;;19.97;11.47;;;0.50;99.90;;;;;;5099332;28;20589;-58
2021/12/23 00:10:36;;;;;;;16.07;10.70;;;0.60;99.90;;;;;;5097884;28;20201;-58
2021/12/23 00:13:03;;;;;;;18.73;11.83;;;0.70;99.90;;;;;;5097205;28;20201;-57
2021/12/23 00:18:17;;;;;;;17.20;10.87;;;0.70;99.90;;;;;;5097183;28;20295;-56
2021/12/23 00:25:49;;;;;;;18.83;11.13;;;0.80;99.90;;;;;;5096185;28;20262;-57
2021/12/23 00:28:16;;;;;;;18.47;10.97;;;0.90;99.90;;;;;;5098616;28;20250;-57
2021/12/23 00:30:43;;;;;;;15.83;11.00;;;0.90;99.90;;;;;;5096227;28;20201;-56
2021/12/23 00:33:10;;;;;;;19.57;11.43;;;0.90;99.90;;;;;;5098378;28;20228;-57
2021/12/23 00:35:37;;;;;;;17.13;10.87;;;0.90;99.90;;;;;;5095237;28;20653;-57
2021/12/23 00:38:13;;;;;;;16.13;11.20;;;0.80;99.90;;;;;;5097599;28;20218;-55
2021/12/23 00:40:40;;;;;;;22.00;12.00;;;0.90;99.90;;;;;;5094184;28;21999;-55
2021/12/23 00:43:07;;;;;;;13.93;9.27;;;0.90;99.90;;;;;;5098113;28;20212;-58
2021/12/23 00:45:34;;;;;;;19.30;11.17;;;1.00;99.90;;;;;;5097509;28;20255;-56
2021/12/23 00:48:01;;;;;;;17.03;10.60;;;0.90;99.90;;;;;;5095875;28;20685;-57
2021/12/23 00:50:28;;;;;;;18.00;10.93;;;1.00;99.90;;;;;;5095799;28;20288;-55
2021/12/23 00:52:57;;;;;;;17.13;10.60;;;0.90;99.90;;;;;;5098076;28;20860;-58
2021/12/23 00:55:24;;;;;;;17.03;10.73;;;1.00;99.90;;;;;;5096830;28;20231;-57
2021/12/23 00:57:51;;;;;;;20.07;11.03;;;0.90;99.90;;;;;;5098161;28;20709;-56
2021/12/23 01:00:21;;;;;;;16.47;9.73;;;1.00;99.90;;;;;;5097593;28;20288;-56
2021/12/23 01:02:48;;;;;;;17.10;10.20;;;1.10;99.90;;;;;;5098149;28;20209;-54
2021/12/23 01:05:19;;;;;;;15.37;10.83;;;1.10;99.90;;;;;;5096529;28;20209;-57
2021/12/23 01:07:46;;;;;;;19.57;10.23;;;1.20;99.90;;;;;;5096527;28;20220;-56
2021/12/23 01:10:15;;;;;;;18.73;11.63;;;1.10;99.90;;;;;;5096380;28;20287;-56
2021/12/23 01:12:48;;;;;;;14.67;10.17;;;1.20;99.90;;;;;;5096466;28;20218;-55
2021/12/23 01:15:39;;;;;;;14.47;9.77;;;1.00;99.90;;;;;;5098445;28;20255;-56
2021/12/23 01:18:13;;;;;;;19.93;10.83;;;1.10;99.90;;;;;;5097863;28;20213;-57
2021/12/23 01:21:02;;;;;;;21.60;11.33;;;1.10;99.90;;;;;;5096366;28;20298;-56
2021/12/23 01:23:31;;;;;;;17.53;11.07;;;1.10;99.90;;;;;;5097068;28;20209;-56
2021/12/23 01:25:58;;;;;;;17.73;11.07;;;1.00;99.90;;;;;;5096398;28;20303;-56
2021/12/23 01:28:26;;;;;;;17.20;10.70;;;1.00;99.90;;;;;;5092970;28;20301;-58
2021/12/23 01:30:52;;;;;;;17.73;10.40;;;1.00;99.90;;;;;;5096000;28;20256;-57
2021/12/23 01:33:20;;;;;;;15.57;10.43;;;1.10;99.90;;;;;;5094182;28;20210;-56
2021/12/23 01:35:50;;;;;;;15.73;10.30;;;0.70;99.90;;;;;;5097605;28;20215;-57
2021/12/23 01:38:17;;;;;;;17.63;10.00;;;0.90;99.90;;;;;;5096713;28;20674;-55
2021/12/23 01:40:46;;;;;;;18.57;10.53;;;1.00;99.90;;;;;;5098199;28;20228;-54
2021/12/23 01:43:14;;;;;;;19.00;11.10;;;1.00;99.90;;;;;;5096393;28;20238;-56
2021/12/23 01:45:47;;;;;;;17.20;10.20;;;1.00;99.90;;;;;;5097240;28;20289;-54
2021/12/23 01:48:15;;;;;;;15.90;10.37;;;1.00;99.90;;;;;;5097368;28;20221;-53
2021/12/23 01:50:43;;;;;;;18.67;10.83;;;1.10;99.90;;;;;;5096883;28;20212;-57
2021/12/23 01:53:11;;;;;;;19.27;11.27;;;0.80;99.90;;;;;;5097877;28;20630;-59
2021/12/23 01:55:39;;;;;;;15.97;10.57;;;0.90;99.90;;;;;;5095511;28;20197;-56
2021/12/23 01:58:06;;;;;;;17.17;9.23;;;0.90;99.90;;;;;;5101401;28;20232;-57
2021/12/23 02:00:36;;;;;;;23.43;10.77;;;0.90;99.90;;;;;;5092392;28;20236;-56
2021/12/23 02:03:04;;;;;;;16.77;10.03;;;0.80;99.90;;;;;;5095193;28;20685;-58
2021/12/23 02:05:32;;;;;;;19.30;10.47;;;0.80;99.90;;;;;;5095552;28;20202;-56
2021/12/23 02:08:00;;;;;;;19.77;10.93;;;0.90;99.90;;;;;;5099498;28;20746;-54
2021/12/23 02:10:28;;;;;;;16.60;10.33;;;0.90;99.90;;;;;;5100609;28;20270;-55
2021/12/23 02:12:56;;;;;;;19.17;10.67;;;1.00;99.90;;;;;;5100042;28;20201;-54
2021/12/23 02:15:24;;;;;;;15.03;9.97;;;1.00;99.90;;;;;;5102766;28;20284;-57
2021/12/23 02:17:51;;;;;;;15.73;10.17;;;1.00;99.90;;;;;;5098794;28;20306;-55
2021/12/23 02:20:22;;;;;;;18.20;11.40;;;1.00;99.90;;;;;;5100087;27;20209;-57
2021/12/23 02:22:50;;;;;;;20.63;11.03;;;1.00;99.90;;;;;;5100826;28;20288;-55
2021/12/23 02:25:17;;;;;;;21.40;11.13;;;0.80;99.90;;;;;;5100439;28;20232;-56
2021/12/23 02:27:45;;;;;;;17.83;11.03;;;0.70;99.90;;;;;;5098462;28;20216;-58
2021/12/23 02:30:17;;;;;;;19.57;11.00;;;0.60;99.90;;;;;;5099143;27;20197;-55
2021/12/23 02:32:45;;;;;;;17.27;10.70;;;0.50;99.90;;;;;;5116234;27;20646;-57
2021/12/23 02:35:15;;;;;;;15.17;9.47;;;0.50;99.90;;;;;;5099405;28;20201;-56
2021/12/23 02:37:43;;;;;;;16.57;10.77;;;0.40;99.90;;;;;;5100435;28;20204;-55
2021/12/23 02:40:21;;;;;;;15.10;9.83;;;0.40;99.90;;;;;;5098492;28;20207;-55
2021/12/23 02:42:48;;;;;;;16.00;10.10;;;0.40;99.90;;;;;;5100031;27;20205;-56
2021/12/23 02:45:15;;;;;;;16.93;10.07;;;0.60;99.90;;;;;;5098729;28;20324;-54
2021/12/23 02:47:42;;;;;;;16.47;10.00;;;0.50;99.90;;;;;;5099665;28;20685;-54
2021/12/23 02:50:09;;;;;;;13.87;10.03;;;0.50;99.90;;;;;;5099653;28;20261;-52
2021/12/23 02:52:36;;;;;;;19.93;11.47;;;0.30;99.90;;;;;;5100532;28;20607;-53
2021/12/23 02:55:04;;;;;;;16.73;10.50;;;0.20;99.90;;;;;;5101201;28;22344;-56
2021/12/23 02:57:33;;;;;;;16.83;10.30;;;0.20;99.90;;;;;;5099805;28;20680;-55
2021/12/23 03:00:08;;;;;;;18.90;11.00;;;0.20;99.90;;;;;;5099232;28;20320;-54
2021/12/23 03:02:38;;;;;;;15.87;10.73;;;0.30;99.90;;;;;;5099347;28;20636;-54
2021/12/23 03:05:06;;;;;;;15.70;10.50;;;0.40;99.90;;;;;;5095010;28;20201;-56
2021/12/23 03:07:34;;;;;;;21.53;10.47;;;0.40;99.90;;;;;;5099049;28;20228;-56
2021/12/23 03:10:04;;;;;;;15.63;10.40;;;0.40;99.90;;;;;;5101601;28;20605;-57
2021/12/23 03:12:31;;;;;;;17.90;10.53;;;0.20;99.90;;;;;;5100320;28;20265;-56
2021/12/23 03:15:00;;;;;;;17.33;10.97;;;0.10;99.90;;;;;;5098912;28;20205;-56
2021/12/23 03:17:27;;;;;;;19.57;10.70;;;0.10;99.90;;;;;;5096822;27;20667;-55
2021/12/23 03:19:53;;;;;;;15.50;10.43;;;0.20;99.90;;;;;;5097347;28;20209;-56
2021/12/23 03:22:20;;;;;;;17.77;10.57;;;0.40;99.90;;;;;;5098294;28;20225;-56
2021/12/23 03:24:47;;;;;;;17.70;10.13;;;0.30;99.90;;;;;;5100121;28;20623;-56
2021/12/23 03:27:14;;;;;;;16.67;10.83;;;0.00;99.90;;;;;;5098839;28;20629;-56
2021/12/23 03:29:41;;;;;;;16.20;10.40;;;0.10;99.90;;;;;;5099085;27;20604;-56
2021/12/23 03:32:08;;;;;;;16.47;9.70;;;0.10;99.90;;;;;;5099891;28;20230;-56
2021/12/23 03:34:35;;;;;;;17.53;11.30;;;0.10;99.90;;;;;;5095955;27;20249;-54
2021/12/23 03:37:02;;;;;;;18.20;11.00;;;0.00;99.90;;;;;;5098239;28;20243;-59
2021/12/23 03:39:28;;;;;;;20.70;11.07;;;0.00;99.90;;;;;;5098104;28;20670;-56
2021/12/23 03:41:55;;;;;;;20.53;12.50;;;0.10;99.90;;;;;;5098127;28;21064;-58
2021/12/23 03:44:22;;;;;;;22.13;11.53;;;0.10;99.90;;;;;;5098045;28;20256;-56
2021/12/23 03:46:49;;;;;;;22.17;12.10;;;0.00;99.90;;;;;;5095948;28;20429;-56
2021/12/23 03:49:16;;;;;;;19.50;10.27;;;-0.20;99.90;;;;;;5097982;28;20330;-53
2021/12/23 03:51:42;;;;;;;19.60;11.23;;;-0.30;99.90;;;;;;5099084;28;20693;-55
2021/12/23 03:54:09;;;;;;;19.80;10.73;;;-0.40;99.90;;;;;;5100163;28;20617;-58
2021/12/23 03:56:36;;;;;;;19.30;11.63;;;-0.30;99.90;;;;;;5099083;28;20239;-55
2021/12/23 03:59:03;;;;;;;18.60;12.60;;;-0.40;99.90;;;;;;5098008;28;20285;-52
2021/12/23 04:01:31;;;;;;;18.73;10.17;;;-0.20;99.90;;;;;;5098443;28;20196;-54
2021/12/23 04:03:58;;;;;;;20.87;11.83;;;-0.20;99.90;;;;;;5097728;28;20423;-54
2021/12/23 04:06:26;;;;;;;16.93;11.37;;;-0.40;99.90;;;;;;5098499;28;20341;-55
2021/12/23 04:08:54;;;;;;;27.50;12.47;;;-0.30;99.90;;;;;;5099966;28;20224;-57
2021/12/23 04:11:22;;;;;;;20.87;12.20;;;-0.40;99.90;;;;;;5098732;28;20201;-55
2021/12/23 04:13:49;;;;;;;20.03;11.87;;;-0.50;99.90;;;;;;5098903;28;20221;-56
2021/12/23 04:16:16;;;;;;;21.80;12.20;;;-0.50;99.90;;;;;;5096517;27;20308;-60
2021/12/23 04:18:45;;;;;;;24.43;13.17;;;-0.50;99.90;;;;;;5098363;28;20966;-56
2021/12/23 04:21:14;;;;;;;21.80;12.30;;;-0.50;99.90;;;;;;5099095;28;20250;-58
2021/12/23 04:23:40;;;;;;;19.47;12.27;;;-0.50;99.90;;;;;;5097270;28;20235;-56
2021/12/23 04:26:09;;;;;;;16.90;11.97;;;-0.40;99.90;;;;;;5099038;28;20873;-55
2021/12/23 04:28:45;;;;;;;25.50;12.50;;;-0.40;99.90;;;;;;5096236;28;20322;-56
2021/12/23 04:31:18;;;;;;;22.83;11.73;;;-0.50;99.90;;;;;;5097533;28;20251;-57
2021/12/23 04:33:47;;;;;;;19.47;12.00;;;-0.60;99.90;;;;;;5096711;28;20200;-55
2021/12/23 04:36:14;;;;;;;19.97;12.50;;;-0.50;99.90;;;;;;5095647;28;20257;-58
2021/12/23 04:38:42;;;;;;;22.70;12.30;;;-0.60;99.90;;;;;;5097655;28;20258;-56
2021/12/23 04:41:10;;;;;;;21.73;12.63;;;-0.40;99.90;;;;;;5097358;28;20289;-57
2021/12/23 04:43:37;;;;;;;22.97;12.73;;;-0.40;99.90;;;;;;5096861;28;20234;-59
2021/12/23 04:46:04;;;;;;;21.10;11.90;;;-0.40;99.90;;;;;;5097068;28;20199;-57
2021/12/23 04:48:32;;;;;;;24.40;12.33;;;-0.50;99.90;;;;;;5095479;28;20220;-56
2021/12/23 04:51:01;;;;;;;24.63;13.70;;;-0.50;99.90;;;;;;5097073;28;20231;-54
2021/12/23 04:53:28;;;;;;;24.87;13.50;;;-0.50;99.90;;;;;;5098454;28;20262;-55
2021/12/23 04:55:55;;;;;;;20.13;12.07;;;-0.50;99.90;;;;;;5097583;28;20728;-54
2021/12/23 04:58:22;;;;;;;26.60;13.60;;;-0.50;99.90;;;;;;5097345;28;20302;-57
2021/12/23 05:00:51;;;;;;;26.37;13.57;;;-0.40;99.90;;;;;;5104045;28;20195;-55
2021/12/23 05:03:22;;;;;;;23.17;12.97;;;-0.50;99.90;;;;;;5098069;28;20239;-56
2021/12/23 05:05:49;;;;;;;21.33;12.93;;;-0.30;99.90;;;;;;5097313;28;20261;-56
2021/12/23 05:08:19;;;;;;;21.63;12.13;;;-0.30;99.90;;;;;;5097853;28;20268;-55
2021/12/23 05:10:46;;;;;;;28.73;12.70;;;-0.30;99.90;;;;;;5097462;28;20262;-54
2021/12/23 05:13:13;;;;;;;22.73;13.67;;;-0.20;99.90;;;;;;5096719;28;20817;-57
2021/12/23 05:15:40;;;;;;;24.43;13.63;;;-0.40;99.90;;;;;;5097983;28;20202;-57
2021/12/23 05:18:08;;;;;;;22.90;12.93;;;-0.30;99.90;;;;;;5097483;28;20291;-56
2021/12/23 05:20:35;;;;;;;24.47;13.93;;;-0.40;99.90;;;;;;5095036;28;20286;-55
2021/12/23 05:23:02;;;;;;;23.67;12.97;;;-0.30;99.90;;;;;;5096968;28;20284;-54
2021/12/23 05:25:29;;;;;;;27.23;14.27;;;-0.20;99.90;;;;;;5096985;28;20241;-55
2021/12/23 05:27:58;;;;;;;22.13;13.13;;;0.00;99.90;;;;;;5100974;28;20729;-54
2021/12/23 05:30:27;;;;;;;22.67;12.83;;;0.10;99.90;;;;;;5095819;28;20285;-53
2021/12/23 05:32:54;;;;;;;26.37;14.23;;;-0.10;99.90;;;;;;5097558;28;20285;-55
2021/12/23 05:35:21;;;;;;;25.70;14.53;;;0.10;99.90;;;;;;5094945;28;20220;-55
2021/12/23 05:37:49;;;;;;;22.03;13.53;;;0.00;99.90;;;;;;5096358;28;20228;-55
2021/12/23 05:40:20;;;;;;;23.67;14.17;;;0.10;99.90;;;;;;5097278;28;20296;-54
2021/12/23 05:42:48;;;;;;;24.50;14.03;;;0.20;99.90;;;;;;5101842;28;20622;-54
2021/12/23 05:45:15;;;;;;;23.67;15.10;;;0.10;99.90;;;;;;5097459;28;20354;-54
2021/12/23 05:47:43;;;;;;;28.47;14.90;;;0.20;99.90;;;;;;5101380;28;20214;-55
2021/12/23 05:50:12;;;;;;;23.43;13.40;;;0.20;99.90;;;;;;5100047;28;20203;-55
2021/12/23 05:52:39;;;;;;;24.90;14.37;;;0.00;99.90;;;;;;5098259;28;20243;-53
2021/12/23 05:55:09;;;;;;;29.53;14.77;;;0.00;99.90;;;;;;5102579;28;20706;-56
2021/12/23 05:57:37;;;;;;;32.33;16.20;;;-0.10;99.90;;;;;;5098941;28;20554;-53
2021/12/23 06:00:16;;;;;;;28.23;15.17;;;-0.10;99.90;;;;;;5098216;28;21063;-55
2021/12/23 06:02:44;;;;;;;26.57;14.90;;;-0.10;99.90;;;;;;5101848;28;20301;-53
2021/12/23 06:05:12;;;;;;;25.50;13.73;;;-0.20;99.90;;;;;;5099207;28;20647;-54
2021/12/23 06:07:40;;;;;;;26.00;14.20;;;-0.30;99.90;;;;;;5101682;28;20325;-55
2021/12/23 06:10:08;;;;;;;24.63;14.63;;;-0.20;99.90;;;;;;5100816;27;20622;-56
2021/12/23 06:12:35;;;;;;;27.57;15.70;;;-0.10;99.90;;;;;;5101590;28;20206;-57
2021/12/23 06:15:03;;;;;;;26.97;15.53;;;-0.10;99.90;;;;;;5100051;28;20463;-57
2021/12/23 06:17:30;;;;;;;30.20;16.53;;;0.10;99.90;;;;;;5099902;28;20247;-55
2021/12/23 06:19:57;;;;;;;27.23;15.73;;;0.20;99.90;;;;;;5098318;28;20194;-57
2021/12/23 06:22:24;;;;;;;27.50;15.03;;;0.20;99.90;;;;;;5099861;28;20654;-56
2021/12/23 06:24:51;;;;;;;31.20;16.47;;;0.00;99.90;;;;;;5099450;28;20634;-55
2021/12/23 06:27:19;;;;;;;29.07;15.97;;;0.00;99.90;;;;;;5080570;28;20690;-55
2021/12/23 06:29:46;;;;;;;32.37;16.10;;;0.00;99.90;;;;;;5099159;28;20213;-54
2021/12/23 06:32:13;;;;;;;30.00;15.23;;;-0.10;99.90;;;;;;5100826;28;20709;-54
2021/12/23 06:34:40;;;;;;;29.37;15.23;;;-0.10;99.90;;;;;;5097606;28;20237;-52
2021/12/23 06:37:07;;;;;;;29.97;15.07;;;0.00;99.90;;;;;;5097454;28;20282;-54
2021/12/23 06:39:36;;;;;;;23.10;14.20;;;-0.20;99.90;;;;;;5100178;28;20786;-53
2021/12/23 06:42:03;;;;;;;30.00;14.17;;;-0.10;99.90;;;;;;5099419;28;20271;-55
2021/12/23 06:44:30;;;;;;;32.87;16.00;;;-0.10;99.90;;;;;;5099261;28;20741;-54
2021/12/23 06:46:57;;;;;;;26.60;14.97;;;0.00;99.90;;;;;;5100380;28;20293;-55
2021/12/23 06:49:24;;;;;;;30.57;16.77;;;0.20;99.90;;;;;;5098830;28;20241;-53
2021/12/23 06:51:51;;;;;;;27.73;15.30;;;0.10;99.90;;;;;;5099920;28;21166;-54
2021/12/23 06:54:18;;;;;;;30.60;15.93;;;0.10;99.90;;;;;;5099615;27;20664;-54
2021/12/23 06:56:46;;;;;;;28.27;15.67;;;0.10;99.90;;;;;;5096814;28;20225;-54
2021/12/23 06:59:16;;;;;;;32.00;16.23;;;0.00;99.90;;;;;;5094084;28;20206;-55
2021/12/23 07:01:47;;;;;;;28.07;15.47;;;0.00;99.90;;;;;;5095766;28;20860;-53
2021/12/23 07:04:17;;;;;;;29.17;15.40;;;0.00;99.90;;;;;;5098415;28;20209;-54
2021/12/23 07:06:58;;;;;;;28.73;16.63;;;0.00;99.90;;;;;;5099999;28;20501;-56
2021/12/23 07:09:25;;;;;;;30.80;16.00;;;0.00;99.90;;;;;;5098089;28;20259;-56
2021/12/23 07:11:51;;;;;;;32.20;16.23;;;0.10;99.90;;;;;;5097548;28;20289;-55
2021/12/23 07:14:18;;;;;;;30.80;15.87;;;0.10;99.90;;;;;;5098654;28;20209;-55
2021/12/23 07:16:45;;;;;;;31.47;16.80;;;0.40;99.90;;;;;;5095836;28;20298;-56
2021/12/23 07:19:12;;;;;;;29.87;15.17;;;0.30;99.90;;;;;;5096778;28;20240;-55
2021/12/23 07:21:39;;;;;;;31.87;15.63;;;0.20;99.90;;;;;;5098359;27;20289;-57
2021/12/23 07:24:06;;;;;;;31.50;16.70;;;0.20;99.90;;;;;;5099729;28;20653;-56
2021/12/23 07:26:33;;;;;;;32.73;15.67;;;0.40;99.90;;;;;;5098544;28;21701;-57
2021/12/23 07:29:00;;;;;;;32.73;17.30;;;0.40;99.90;;;;;;5100094;28;20225;-55
2021/12/23 07:31:27;;;;;;;33.07;15.83;;;0.30;99.90;;;;;;5099952;28;20320;-56
2021/12/23 07:33:53;;;;;;;31.67;16.13;;;0.60;99.90;;;;;;5096915;28;20252;-55
2021/12/23 07:36:23;;;;;;;31.13;16.40;;;0.50;99.90;;;;;;5097416;27;20281;-57
2021/12/23 07:38:50;;;;;;;28.97;15.93;;;0.40;99.90;;;;;;5098422;27;20654;-55
2021/12/23 07:41:17;;;;;;;31.00;16.80;;;0.30;99.90;;;;;;5098017;28;20288;-57
2021/12/23 07:43:57;;;;;;;30.80;15.47;;;0.30;99.90;;;;;;5096508;27;20323;-56
2021/12/23 07:46:28;;;;;;;31.70;15.60;;;0.40;99.90;;;;;;5097313;28;20618;-54
2021/12/23 07:48:57;;;;;;;28.93;15.90;;;0.40;99.90;;;;;;5096264;28;20222;-56
2021/12/23 07:51:25;;;;;;;33.27;16.60;;;0.50;99.90;;;;;;5094016;28;20228;-56
2021/12/23 07:53:53;;;;;;;31.50;15.97;;;0.60;99.90;;;;;;5096624;28;20292;-57
2021/12/23 07:56:22;;;;;;;29.97;16.50;;;0.50;99.90;;;;;;5096549;28;20250;-55
2021/12/23 07:58:49;;;;;;;27.53;15.10;;;0.40;99.90;;;;;;5097689;28;20684;-57
2021/12/23 08:01:16;;;;;;;29.47;15.50;;;0.40;99.90;;;;;;5095465;28;20229;-55
2021/12/23 08:03:43;;;;;;;32.60;16.20;;;0.50;99.90;;;;;;5096245;27;20333;-55
2021/12/23 08:06:10;;;;;;;35.27;16.50;;;0.50;99.90;;;;;;5096669;28;20213;-53
2021/12/23 08:08:37;;;;;;;32.47;16.03;;;0.70;99.90;;;;;;5095610;27;20713;-56
2021/12/23 08:11:06;;;;;;;34.40;15.80;;;0.90;99.90;;;;;;5094942;28;20795;-56
2021/12/23 08:13:34;;;;;;;27.93;15.13;;;1.00;99.90;;;;;;5097923;28;20194;-56
2021/12/23 08:16:01;;;;;;;33.33;16.43;;;0.90;99.90;;;;;;5097442;27;20307;-57
2021/12/23 08:18:29;;;;;;;29.20;14.97;;;0.90;99.90;;;;;;5093776;28;20611;-56
2021/12/23 08:20:57;;;;;;;30.10;15.57;;;1.00;99.90;;;;;;5092329;28;20250;-56
2021/12/23 08:23:24;;;;;;;32.57;14.97;;;0.80;99.90;;;;;;5095252;28;20293;-57
2021/12/23 08:25:52;;;;;;;29.70;16.13;;;0.90;99.90;;;;;;5097331;28;20287;-57
2021/12/23 08:28:19;;;;;;;35.50;16.43;;;1.00;99.90;;;;;;5097135;28;20768;-54
2021/12/23 08:30:46;;;;;;;28.63;16.07;;;1.20;99.90;;;;;;5095940;28;20194;-55
2021/12/23 08:33:13;;;;;;;35.00;17.03;;;1.20;99.90;;;;;;5092969;28;21223;-56
2021/12/23 08:35:40;;;;;;;29.60;14.57;;;1.10;99.90;;;;;;5094181;28;20665;-53
2021/12/23 08:38:07;;;;;;;30.93;15.63;;;1.10;99.90;;;;;;5092352;28;20289;-57
2021/12/23 08:40:34;;;;;;;29.00;15.83;;;1.10;99.90;;;;;;5094438;28;20210;-57
2021/12/23 08:43:02;;;;;;;29.77;16.40;;;1.20;99.90;;;;;;5096670;27;20228;-56
2021/12/23 08:45:32;;;;;;;30.03;16.20;;;1.20;99.90;;;;;;5093003;28;20271;-57
2021/12/23 08:48:00;;;;;;;31.00;15.57;;;1.20;99.90;;;;;;5088001;28;20213;-56
2021/12/23 08:50:29;;;;;;;26.27;14.10;;;1.30;99.90;;;;;;5090281;28;20225;-57
2021/12/23 08:52:57;;;;;;;31.40;15.87;;;1.40;99.90;;;;;;5093774;28;20190;-56
2021/12/23 08:55:27;;;;;;;33.90;16.10;;;1.50;99.90;;;;;;5085820;28;20277;-59
2021/12/23 08:57:55;;;;;;;30.20;15.70;;;1.20;99.90;;;;;;5091778;28;20271;-57
2021/12/23 09:00:23;;;;;;;31.10;16.17;;;1.00;99.90;;;;;;5092572;28;20293;-56
2021/12/23 09:02:50;;;;;;;28.87;16.03;;;1.20;99.90;;;;;;5093448;28;20600;-57
2021/12/23 09:05:19;;;;;;;32.73;17.00;;;1.20;99.90;;;;;;5092754;28;21019;-56
2021/12/23 09:07:48;;;;;;;28.93;15.50;;;1.20;99.90;;;;;;5090190;28;21147;-57
2021/12/23 09:10:15;;;;;;;33.40;16.17;;;1.20;99.90;;;;;;5092183;28;20231;-55
2021/12/23 09:12:42;;;;;;;29.07;15.67;;;1.30;99.90;;;;;;5089774;28;21245;-56
2021/12/23 09:15:10;;;;;;;33.00;17.90;;;1.40;99.90;;;;;;5091166;28;20210;-58
2021/12/23 09:17:38;;;;;;;32.73;15.70;;;1.50;99.90;;;;;;5097448;27;20828;-57
2021/12/23 09:20:07;;;;;;;29.83;15.43;;;1.50;99.90;;;;;;5095757;28;20731;-55
2021/12/23 09:22:34;;;;;;;30.73;15.33;;;1.50;99.90;;;;;;5095205;28;20229;-56
2021/12/23 09:25:07;;;;;;;27.90;15.50;;;1.30;99.90;;;;;;5096817;28;20219;-55
2021/12/23 09:27:41;;;;;;;34.43;16.23;;;1.30;99.90;;;;;;5095465;28;20268;-57
2021/12/23 09:32:53;;;;;;;28.57;15.87;;;1.40;99.90;;;;;;5098097;28;21297;-55
2021/12/23 09:35:40;;;;;;;32.30;15.97;;;1.60;99.90;;;;;;5096281;28;20209;-58
2021/12/23 09:38:08;;;;;;;25.17;14.87;;;1.30;99.90;;;;;;5095912;28;20236;-57
2021/12/23 09:40:36;;;;;;;29.93;14.07;;;1.40;99.90;;;;;;5096800;27;20254;-56
2021/12/23 09:43:07;;;;;;;28.87;14.93;;;1.50;99.90;;;;;;5097514;27;20297;-56
2021/12/23 09:45:36;;;;;;;32.50;15.80;;;1.30;99.90;;;;;;5098608;28;20725;-57
2021/12/23 09:48:04;;;;;;;30.67;15.53;;;1.50;99.90;;;;;;5095978;27;20304;-56
2021/12/23 09:50:36;;;;;;;29.70;15.17;;;1.30;99.90;;;;;;5098874;27;20224;-57
2021/12/23 09:53:04;;;;;;;30.70;14.63;;;1.50;99.90;;;;;;5092314;28;20308;-60
2021/12/23 09:55:35;;;;;;;29.60;14.97;;;1.40;99.90;;;;;;5099312;27;20222;-56
2021/12/23 09:58:04;;;;;;;27.23;14.40;;;1.40;99.90;;;;;;5097719;28;20220;-58
2021/12/23 10:00:34;;;;;;;32.10;15.43;;;1.40;99.90;;;;;;5097194;28;20646;-57
2021/12/23 10:03:01;;;;;;;31.03;15.73;;;1.30;99.90;;;;;;5097710;27;20195;-56
2021/12/23 10:05:32;;;;;;;30.50;15.20;;;1.30;99.90;;;;;;5096219;28;20207;-57
2021/12/23 10:07:59;;;;;;;31.37;16.33;;;1.30;99.90;;;;;;5096096;28;20231;-58
2021/12/23 10:10:36;;;;;;;28.73;14.47;;;1.50;99.90;;;;;;5097408;28;20305;-58
2021/12/23 10:38:47;;;;;;;27.07;14.17;;;1.60;99.90;;;;;;5089585;28;20291;-57
2021/12/23 10:41:16;;;;;;;30.70;14.93;;;1.50;99.90;;;;;;5095946;27;20323;-56
2021/12/23 10:43:58;;;;;;;28.77;14.97;;;1.50;99.90;;;;;;5094027;28;20279;-57
2021/12/23 10:46:37;;;;;;;30.47;15.43;;;1.60;99.90;;;;;;5093381;28;20386;-54
2021/12/23 10:49:38;;;;;;;29.53;16.27;;;1.60;99.90;;;;;;5092176;28;20597;-57
2021/12/23 11:00:15;;;;;;;25.23;13.77;;;1.90;99.90;;;;;;5095097;27;20224;-56
2021/12/23 11:03:00;;;;;;;30.13;14.33;;;1.90;99.90;;;;;;5094998;28;20204;-57
2021/12/23 11:05:32;;;;;;;28.33;14.63;;;2.00;99.90;;;;;;5096389;28;20303;-56
2021/12/23 11:08:19;;;;;;;29.87;15.30;;;2.00;99.90;;;;;;5095797;28;20209;-57
2021/12/23 11:38:14;;;;;;;26.57;13.60;;;2.50;99.90;;;;;;5098223;27;20273;-57
2021/12/23 11:45:46;;;;;;;25.20;14.27;;;2.80;99.90;;;;;;5095157;27;22700;-57
2021/12/23 11:48:14;;;;;;;24.77;13.53;;;2.90;99.90;;;;;;5094349;28;20304;-58
2021/12/23 11:50:54;;;;;;;23.40;13.20;;;3.10;99.90;;;;;;5094214;27;20231;-58
2021/12/23 11:53:27;;;;;;;27.17;14.33;;;3.20;99.90;;;;;;5094514;28;20232;-57
2021/12/23 11:55:55;;;;;;;26.87;13.33;;;3.30;99.90;;;;;;5096079;28;20730;-57
2021/12/23 11:58:24;;;;;;;25.47;14.30;;;3.40;99.90;;;;;;5095937;27;20216;-56
2021/12/23 12:01:08;;;;;;;30.63;14.37;;;3.40;99.90;;;;;;5095105;27;20254;-55
2021/12/23 12:03:54;;;;;;;26.60;14.30;;;3.50;99.90;;;;;;5093047;28;20596;-57
2021/12/23 12:06:29;;;;;;;30.97;13.90;;;3.60;99.90;;;;;;5096170;28;20225;-57
2021/12/23 12:09:14;;;;;;;25.57;13.23;;;3.60;99.90;;;;;;5096052;28;20763;-57
2021/12/23 12:11:47;;;;;;;24.97;13.63;;;3.60;99.90;;;;;;5093172;28;20595;-57
2021/12/23 12:14:34;;;;;;;24.70;13.03;;;3.60;99.90;;;;;;5097165;28;20249;-57
2021/12/23 12:17:23;;;;;;;31.40;13.93;;;3.70;99.90;;;;;;5088402;28;20270;-56
2021/12/23 12:20:13;;;;;;;28.43;14.10;;;3.70;99.90;;;;;;5095537;27;20208;-57
2021/12/23 12:23:06;;;;;;;25.83;12.80;;;3.80;99.90;;;;;;5095220;28;20291;-56
2021/12/23 12:25:41;;;;;;;26.10;14.37;;;3.70;99.90;;;;;;5092903;28;20203;-55
2021/12/23 12:28:07;;;;;;;24.97;12.77;;;3.70;99.90;;;;;;5096990;28;20852;-57
2021/12/23 12:30:35;;;;;;;24.30;13.50;;;3.80;99.90;;;;;;5097397;28;20387;-55
2021/12/23 12:33:29;;;;;;;29.57;14.90;;;3.80;99.90;;;;;;5097614;28;20642;-55
2021/12/23 12:36:04;;;;;;;26.27;13.87;;;3.80;99.90;;;;;;5112877;27;20236;-54
2021/12/23 12:38:41;;;;;;;24.63;13.07;;;3.80;99.90;;;;;;5096451;28;20262;-55
2021/12/23 12:41:24;;;;;;;25.43;14.37;;;3.90;99.90;;;;;;5099582;28;20236;-56
2021/12/23 12:44:32;;;;;;;24.77;12.93;;;3.90;99.90;;;;;;5090525;28;20260;-54
2021/12/23 12:49:46;;;;;;;26.10;14.73;;;3.90;99.90;;;;;;5094952;28;20513;-55
2021/12/23 12:52:20;;;;;;;27.83;14.23;;;3.90;99.90;;;;;;5094616;28;20738;-56
2021/12/23 12:55:05;;;;;;;28.60;14.87;;;3.90;99.90;;;;;;5091684;28;20296;-54
2021/12/23 12:57:39;;;;;;;28.53;14.20;;;3.90;99.90;;;;;;5096117;28;20193;-58
2021/12/23 13:00:31;;;;;;;25.57;13.27;;;3.90;99.90;;;;;;5096677;28;20239;-56
2021/12/23 13:03:12;;;;;;;27.13;13.43;;;3.90;99.90;;;;;;5094663;28;20255;-53
2021/12/23 13:05:42;;;;;;;28.10;14.37;;;3.90;99.90;;;;;;5094550;28;20642;-54
2021/12/23 13:08:24;;;;;;;27.50;13.77;;;4.00;99.90;;;;;;5090360;28;20207;-55
2021/12/23 13:10:57;;;;;;;27.77;14.97;;;4.00;99.90;;;;;;5093765;28;20655;-52
2021/12/23 13:13:32;;;;;;;25.50;13.10;;;4.00;99.90;;;;;;5093998;28;21106;-55
2021/12/23 13:16:01;;;;;;;27.00;14.53;;;4.10;99.90;;;;;;5096539;28;20850;-53
2021/12/23 13:18:28;;;;;;;26.70;13.77;;;4.10;99.90;;;;;;5093347;28;20221;-54
2021/12/23 13:20:57;;;;;;;26.03;14.73;;;4.10;99.90;;;;;;5095167;28;20289;-53
2021/12/23 13:23:37;;;;;;;24.37;13.63;;;4.20;99.90;;;;;;5093300;28;20694;-57
2021/12/23 13:26:16;;;;;;;24.27;13.03;;;4.20;99.90;;;;;;5093621;28;20229;-56
2021/12/23 13:28:58;;;;;;;25.20;13.23;;;4.20;99.90;;;;;;5089689;28;20339;-53
2021/12/23 13:31:31;;;;;;;24.57;13.77;;;4.30;99.90;;;;;;5096386;28;20250;-53
2021/12/23 13:34:00;;;;;;;22.87;13.43;;;4.30;99.90;;;;;;5092063;28;20206;-54
2021/12/23 13:36:33;;;;;;;26.00;13.57;;;4.30;99.90;;;;;;5097240;28;20319;-54
2021/12/23 13:39:06;;;;;;;25.93;15.00;;;4.30;99.90;;;;;;5094717;28;20738;-52
2021/12/23 13:41:38;;;;;;;31.47;14.63;;;4.30;99.90;;;;;;5095676;28;20202;-54
2021/12/23 13:44:14;;;;;;;24.93;13.27;;;4.30;99.90;;;;;;5095306;28;20320;-55
2021/12/23 13:47:02;;;;;;;21.80;12.87;;;4.30;99.90;;;;;;5093394;28;20197;-55
2021/12/23 13:49:34;;;;;;;23.77;13.80;;;4.30;99.90;;;;;;5095973;28;20225;-54
2021/12/23 13:52:08;;;;;;;27.63;14.80;;;4.30;99.90;;;;;;5096719;28;20201;-54
2021/12/23 13:54:39;;;;;;;25.57;14.60;;;4.30;99.90;;;;;;5096775;28;20245;-55
2021/12/23 13:57:12;;;;;;;27.07;15.40;;;4.40;99.90;;;;;;5094102;28;20289;-53
2021/12/23 13:59:39;;;;;;;26.73;15.93;;;4.40;99.90;;;;;;5095025;28;20273;-54
2021/12/23 14:02:11;;;;;;;27.53;14.20;;;4.40;99.90;;;;;;5102698;27;20204;-53
2021/12/23 14:04:43;;;;;;;29.33;14.97;;;4.40;99.90;;;;;;5097206;28;20222;-55
2021/12/23 14:07:25;;;;;;;29.73;14.20;;;4.40;99.90;;;;;;5112347;27;20289;-55
2021/12/23 14:09:53;;;;;;;27.80;14.47;;;4.40;99.90;;;;;;5101742;27;20301;-62